sensor_id;sensor_type;location;lat;lon;timestamp;P1;durP1;ratioP1;P2;durP2;ratioP2
10884;SDS011;5495;53.252;10.390;2022-08-01T00:00:49;9.03;;;7.17;;
10884;SDS011;5495;53.252;10.390;2022-08-01T00:03:33;10.53;;;7.70;;
10884;SDS011;5495;53.252;10.390;2022-08-01T00:06:01;10.67;;;9.57;;
10884;SDS011;5495;53.252;10.390;2022-08-01T00:08:46;11.93;;;8.83;;
10884;SDS011;5495;53.252;10.390;2022-08-01T00:11:17;11.27;;;8.23;;
10884;SDS011;5495;53.252;10.390;2022-08-01T00:13:47;11.63;;;9.43;;
10884;SDS011;5495;53.252;10.390;2022-08-01T00:16:15;9.63;;;8.63;;
10884;SDS011;5495;53.252;10.390;2022-08-01T00:18:44;10.87;;;9.20;;
10884;SDS011;5495;53.252;10.390;2022-08-01T00:21:12;12.27;;;9.43;;
10884;SDS011;5495;53.252;10.390;2022-08-01T00:23:40;9.93;;;8.93;;
10884;SDS011;5495;53.252;10.390;2022-08-01T00:26:07;10.23;;;9.17;;
10884;SDS011;5495;53.252;10.390;2022-08-01T00:28:34;10.30;;;9.30;;
10884;SDS011;5495;53.252;10.390;2022-08-01T00:31:02;13.30;;;9.07;;
10884;SDS011;5495;53.252;10.390;2022-08-01T00:33:29;13.27;;;10.70;;
10884;SDS011;5495;53.252;10.390;2022-08-01T00:35:58;11.43;;;9.50;;
10884;SDS011;5495;53.252;10.390;2022-08-01T00:38:27;14.63;;;9.30;;
10884;SDS011;5495;53.252;10.390;2022-08-01T00:40:55;11.03;;;8.93;;
10884;SDS011;5495;53.252;10.390;2022-08-01T00:43:23;11.27;;;9.03;;
10884;SDS011;5495;53.252;10.390;2022-08-01T00:45:56;11.53;;;9.03;;
10884;SDS011;5495;53.252;10.390;2022-08-01T00:48:33;11.43;;;9.13;;
10884;SDS011;5495;53.252;10.390;2022-08-01T00:51:13;14.37;;;9.07;;
10884;SDS011;5495;53.252;10.390;2022-08-01T00:53:56;12.33;;;10.27;;
10884;SDS011;5495;53.252;10.390;2022-08-01T00:56:30;13.77;;;10.10;;
10884;SDS011;5495;53.252;10.390;2022-08-01T00:58:58;10.93;;;9.93;;
10884;SDS011;5495;53.252;10.390;2022-08-01T01:01:28;11.33;;;10.23;;
10884;SDS011;5495;53.252;10.390;2022-08-01T01:04:17;10.80;;;9.47;;
10884;SDS011;5495;53.252;10.390;2022-08-01T01:06:59;11.63;;;9.77;;
10884;SDS011;5495;53.252;10.390;2022-08-01T01:09:56;13.03;;;9.93;;
10884;SDS011;5495;53.252;10.390;2022-08-01T01:12:47;11.17;;;10.07;;
10884;SDS011;5495;53.252;10.390;2022-08-01T01:15:33;11.83;;;10.43;;
10884;SDS011;5495;53.252;10.390;2022-08-01T01:18:09;11.03;;;10.03;;
10884;SDS011;5495;53.252;10.390;2022-08-01T01:20:50;11.20;;;10.00;;
10884;SDS011;5495;53.252;10.390;2022-08-01T01:26:27;11.23;;;9.87;;
10884;SDS011;5495;53.252;10.390;2022-08-01T01:29:10;10.83;;;9.73;;
10884;SDS011;5495;53.252;10.390;2022-08-01T01:35:01;14.73;;;10.83;;
10884;SDS011;5495;53.252;10.390;2022-08-01T01:37:59;16.33;;;9.30;;
10884;SDS011;5495;53.252;10.390;2022-08-01T01:40:35;12.37;;;9.77;;
10884;SDS011;5495;53.252;10.390;2022-08-01T01:43:25;10.77;;;9.43;;
10884;SDS011;5495;53.252;10.390;2022-08-01T01:48:47;12.17;;;9.33;;
10884;SDS011;5495;53.252;10.390;2022-08-01T01:51:16;10.37;;;9.27;;
10884;SDS011;5495;53.252;10.390;2022-08-01T01:53:59;12.43;;;9.23;;
10884;SDS011;5495;53.252;10.390;2022-08-01T01:56:29;16.77;;;9.93;;
10884;SDS011;5495;53.252;10.390;2022-08-01T01:58:59;10.60;;;9.60;;
10884;SDS011;5495;53.252;10.390;2022-08-01T02:01:44;10.57;;;9.57;;
10884;SDS011;5495;53.252;10.390;2022-08-01T02:04:23;10.87;;;9.87;;
10884;SDS011;5495;53.252;10.390;2022-08-01T02:06:56;13.13;;;10.57;;
10884;SDS011;5495;53.252;10.390;2022-08-01T02:09:28;11.93;;;10.60;;
10884;SDS011;5495;53.252;10.390;2022-08-01T02:12:00;13.13;;;11.30;;
10884;SDS011;5495;53.252;10.390;2022-08-01T02:14:35;14.00;;;10.30;;
10884;SDS011;5495;53.252;10.390;2022-08-01T02:17:15;12.03;;;10.10;;
10884;SDS011;5495;53.252;10.390;2022-08-01T02:19:49;11.37;;;10.27;;
10884;SDS011;5495;53.252;10.390;2022-08-01T02:22:27;14.87;;;10.27;;
10884;SDS011;5495;53.252;10.390;2022-08-01T02:25:03;12.03;;;10.37;;
10884;SDS011;5495;53.252;10.390;2022-08-01T02:27:45;11.20;;;9.97;;
10884;SDS011;5495;53.252;10.390;2022-08-01T02:30:25;11.33;;;10.13;;
10884;SDS011;5495;53.252;10.390;2022-08-01T02:33:02;12.83;;;10.33;;
10884;SDS011;5495;53.252;10.390;2022-08-01T02:35:41;11.57;;;10.23;;
10884;SDS011;5495;53.252;10.390;2022-08-01T02:38:20;12.67;;;10.47;;
10884;SDS011;5495;53.252;10.390;2022-08-01T02:43:47;11.83;;;10.63;;
10884;SDS011;5495;53.252;10.390;2022-08-01T02:46:35;12.23;;;10.63;;
10884;SDS011;5495;53.252;10.390;2022-08-01T02:49:12;12.37;;;10.53;;
10884;SDS011;5495;53.252;10.390;2022-08-01T02:51:45;15.23;;;10.63;;
10884;SDS011;5495;53.252;10.390;2022-08-01T02:54:31;12.73;;;9.80;;
10884;SDS011;5495;53.252;10.390;2022-08-01T02:57:03;11.17;;;9.37;;
10884;SDS011;5495;53.252;10.390;2022-08-01T02:59:42;15.67;;;10.47;;
10884;SDS011;5495;53.252;10.390;2022-08-01T03:02:21;11.90;;;9.07;;
10884;SDS011;5495;53.252;10.390;2022-08-01T03:05:21;10.90;;;9.70;;
10884;SDS011;5495;53.252;10.390;2022-08-01T03:07:57;11.30;;;9.93;;
10884;SDS011;5495;53.252;10.390;2022-08-01T03:10:45;11.97;;;9.60;;
10884;SDS011;5495;53.252;10.390;2022-08-01T03:13:32;12.40;;;9.37;;
10884;SDS011;5495;53.252;10.390;2022-08-01T03:16:04;10.43;;;8.80;;
10884;SDS011;5495;53.252;10.390;2022-08-01T03:18:46;14.40;;;8.90;;
10884;SDS011;5495;53.252;10.390;2022-08-01T03:21:27;9.53;;;8.50;;
10884;SDS011;5495;53.252;10.390;2022-08-01T03:24:04;11.50;;;8.20;;
10884;SDS011;5495;53.252;10.390;2022-08-01T03:26:52;10.23;;;8.20;;
10884;SDS011;5495;53.252;10.390;2022-08-01T03:29:48;12.40;;;7.50;;
10884;SDS011;5495;53.252;10.390;2022-08-01T03:32:17;8.93;;;7.87;;
10884;SDS011;5495;53.252;10.390;2022-08-01T03:34:47;9.20;;;7.07;;
10884;SDS011;5495;53.252;10.390;2022-08-01T03:37:32;8.50;;;6.73;;
10884;SDS011;5495;53.252;10.390;2022-08-01T03:40:11;10.07;;;7.30;;
10884;SDS011;5495;53.252;10.390;2022-08-01T03:42:50;11.80;;;6.67;;
10884;SDS011;5495;53.252;10.390;2022-08-01T03:45:25;16.50;;;6.70;;
10884;SDS011;5495;53.252;10.390;2022-08-01T03:48:09;7.63;;;5.97;;
10884;SDS011;5495;53.252;10.390;2022-08-01T03:50:40;6.17;;;5.53;;
10884;SDS011;5495;53.252;10.390;2022-08-01T03:53:17;6.33;;;5.73;;
10884;SDS011;5495;53.252;10.390;2022-08-01T03:55:49;6.63;;;5.50;;
10884;SDS011;5495;53.252;10.390;2022-08-01T03:58:24;7.27;;;5.87;;
10884;SDS011;5495;53.252;10.390;2022-08-01T04:00:56;5.50;;;5.00;;
10884;SDS011;5495;53.252;10.390;2022-08-01T04:03:27;10.33;;;5.33;;
10884;SDS011;5495;53.252;10.390;2022-08-01T04:05:55;10.30;;;5.77;;
10884;SDS011;5495;53.252;10.390;2022-08-01T04:08:35;7.27;;;5.60;;
10884;SDS011;5495;53.252;10.390;2022-08-01T04:11:20;5.77;;;5.20;;
10884;SDS011;5495;53.252;10.390;2022-08-01T04:14:09;6.57;;;5.00;;
10884;SDS011;5495;53.252;10.390;2022-08-01T04:16:44;7.57;;;4.83;;
10884;SDS011;5495;53.252;10.390;2022-08-01T04:19:16;9.90;;;5.70;;
10884;SDS011;5495;53.252;10.390;2022-08-01T04:21:48;10.40;;;5.37;;
10884;SDS011;5495;53.252;10.390;2022-08-01T04:24:21;8.00;;;5.03;;
10884;SDS011;5495;53.252;10.390;2022-08-01T04:26:52;6.10;;;5.13;;
10884;SDS011;5495;53.252;10.390;2022-08-01T04:29:23;7.90;;;5.17;;
10884;SDS011;5495;53.252;10.390;2022-08-01T04:31:58;7.43;;;5.10;;
10884;SDS011;5495;53.252;10.390;2022-08-01T04:34:39;5.30;;;4.80;;
10884;SDS011;5495;53.252;10.390;2022-08-01T04:37:27;6.07;;;4.73;;
10884;SDS011;5495;53.252;10.390;2022-08-01T04:40:28;6.00;;;4.60;;
10884;SDS011;5495;53.252;10.390;2022-08-01T04:43:00;6.43;;;5.17;;
10884;SDS011;5495;53.252;10.390;2022-08-01T04:45:29;5.37;;;4.77;;
10884;SDS011;5495;53.252;10.390;2022-08-01T04:48:13;5.23;;;4.50;;
10884;SDS011;5495;53.252;10.390;2022-08-01T04:50:44;7.93;;;4.80;;
10884;SDS011;5495;53.252;10.390;2022-08-01T04:53:48;6.67;;;4.77;;
10884;SDS011;5495;53.252;10.390;2022-08-01T04:56:19;4.47;;;3.90;;
10884;SDS011;5495;53.252;10.390;2022-08-01T04:58:49;6.33;;;4.13;;
10884;SDS011;5495;53.252;10.390;2022-08-01T05:04:44;4.73;;;4.03;;
10884;SDS011;5495;53.252;10.390;2022-08-01T05:07:20;6.87;;;4.57;;
10884;SDS011;5495;53.252;10.390;2022-08-01T05:10:27;6.63;;;4.07;;
10884;SDS011;5495;53.252;10.390;2022-08-01T05:19:30;5.67;;;3.53;;
10884;SDS011;5495;53.252;10.390;2022-08-01T05:22:26;6.03;;;3.53;;
10884;SDS011;5495;53.252;10.390;2022-08-01T05:25:19;4.00;;;2.90;;
10884;SDS011;5495;53.252;10.390;2022-08-01T05:35:02;7.17;;;2.80;;
10884;SDS011;5495;53.252;10.390;2022-08-01T05:58:36;5.27;;;2.37;;
10884;SDS011;5495;53.252;10.390;2022-08-01T06:03:05;3.30;;;2.43;;
10884;SDS011;5495;53.252;10.390;2022-08-01T06:05:50;10.37;;;2.50;;
10884;SDS011;5495;53.252;10.390;2022-08-01T06:08:47;3.53;;;2.20;;
10884;SDS011;5495;53.252;10.390;2022-08-01T06:34:55;2.50;;;1.60;;
10884;SDS011;5495;53.252;10.390;2022-08-01T06:40:35;1.83;;;1.53;;
10884;SDS011;5495;53.252;10.390;2022-08-01T06:43:43;1.50;;;1.40;;
10884;SDS011;5495;53.252;10.390;2022-08-01T06:46:29;1.80;;;1.70;;
10884;SDS011;5495;53.252;10.390;2022-08-01T06:49:04;2.53;;;2.10;;
10884;SDS011;5495;53.252;10.390;2022-08-01T06:54:48;4.87;;;2.47;;
10884;SDS011;5495;53.252;10.390;2022-08-01T06:57:16;4.60;;;2.30;;
10884;SDS011;5495;53.252;10.390;2022-08-01T06:59:49;4.33;;;2.70;;
10884;SDS011;5495;53.252;10.390;2022-08-01T07:02:23;4.30;;;2.80;;
10884;SDS011;5495;53.252;10.390;2022-08-01T07:05:00;3.23;;;2.80;;
10884;SDS011;5495;53.252;10.390;2022-08-01T07:07:59;3.50;;;3.20;;
10884;SDS011;5495;53.252;10.390;2022-08-01T07:10:26;3.87;;;3.57;;
10884;SDS011;5495;53.252;10.390;2022-08-01T07:13:33;4.30;;;3.63;;
10884;SDS011;5495;53.252;10.390;2022-08-01T07:16:29;4.17;;;3.77;;
10884;SDS011;5495;53.252;10.390;2022-08-01T07:19:07;6.50;;;3.70;;
10884;SDS011;5495;53.252;10.390;2022-08-01T07:21:57;3.70;;;3.30;;
10884;SDS011;5495;53.252;10.390;2022-08-01T07:28:09;8.27;;;3.47;;
10884;SDS011;5495;53.252;10.390;2022-08-01T07:30:53;4.87;;;3.57;;
10884;SDS011;5495;53.252;10.390;2022-08-01T07:34:16;5.50;;;3.77;;
10884;SDS011;5495;53.252;10.390;2022-08-01T07:36:49;8.63;;;4.00;;
10884;SDS011;5495;53.252;10.390;2022-08-01T07:39:24;8.40;;;3.70;;
10884;SDS011;5495;53.252;10.390;2022-08-01T07:45:10;5.27;;;3.83;;
10884;SDS011;5495;53.252;10.390;2022-08-01T07:47:40;3.80;;;3.40;;
10884;SDS011;5495;53.252;10.390;2022-08-01T07:50:17;5.90;;;3.63;;
10884;SDS011;5495;53.252;10.390;2022-08-01T07:53:00;4.10;;;3.03;;
10884;SDS011;5495;53.252;10.390;2022-08-01T07:55:52;6.63;;;3.07;;
10884;SDS011;5495;53.252;10.390;2022-08-01T07:58:33;7.23;;;3.53;;
10884;SDS011;5495;53.252;10.390;2022-08-01T08:01:22;4.97;;;3.17;;
10884;SDS011;5495;53.252;10.390;2022-08-01T08:04:02;5.13;;;3.17;;
10884;SDS011;5495;53.252;10.390;2022-08-01T08:06:33;5.00;;;3.00;;
10884;SDS011;5495;53.252;10.390;2022-08-01T08:09:01;5.73;;;3.57;;
10884;SDS011;5495;53.252;10.390;2022-08-01T08:11:32;7.37;;;3.50;;
10884;SDS011;5495;53.252;10.390;2022-08-01T08:14:01;5.57;;;3.70;;
10884;SDS011;5495;53.252;10.390;2022-08-01T08:16:31;5.87;;;3.73;;
10884;SDS011;5495;53.252;10.390;2022-08-01T08:18:58;7.87;;;3.93;;
10884;SDS011;5495;53.252;10.390;2022-08-01T08:21:28;5.60;;;3.63;;
10884;SDS011;5495;53.252;10.390;2022-08-01T08:24:04;6.53;;;3.70;;
10884;SDS011;5495;53.252;10.390;2022-08-01T08:27:02;5.03;;;3.60;;
10884;SDS011;5495;53.252;10.390;2022-08-01T08:29:32;8.23;;;3.90;;
10884;SDS011;5495;53.252;10.390;2022-08-01T08:32:13;4.27;;;3.83;;
10884;SDS011;5495;53.252;10.390;2022-08-01T08:34:46;5.70;;;3.60;;
10884;SDS011;5495;53.252;10.390;2022-08-01T08:37:20;7.53;;;4.00;;
10884;SDS011;5495;53.252;10.390;2022-08-01T08:39:48;4.10;;;3.70;;
10884;SDS011;5495;53.252;10.390;2022-08-01T08:42:20;4.73;;;3.20;;
10884;SDS011;5495;53.252;10.390;2022-08-01T08:44:55;7.00;;;3.33;;
10884;SDS011;5495;53.252;10.390;2022-08-01T08:50:20;6.30;;;3.13;;
10884;SDS011;5495;53.252;10.390;2022-08-01T08:52:49;7.23;;;3.50;;
10884;SDS011;5495;53.252;10.390;2022-08-01T08:55:17;3.63;;;3.07;;
10884;SDS011;5495;53.252;10.390;2022-08-01T08:57:48;5.67;;;3.20;;
10884;SDS011;5495;53.252;10.390;2022-08-01T09:00:25;8.87;;;3.93;;
10884;SDS011;5495;53.252;10.390;2022-08-01T09:03:07;7.27;;;3.83;;
10884;SDS011;5495;53.252;10.390;2022-08-01T09:05:36;8.23;;;3.93;;
10884;SDS011;5495;53.252;10.390;2022-08-01T09:08:09;11.10;;;4.07;;
10884;SDS011;5495;53.252;10.390;2022-08-01T09:10:37;8.13;;;4.10;;
10884;SDS011;5495;53.252;10.390;2022-08-01T09:13:15;9.20;;;4.40;;
10884;SDS011;5495;53.252;10.390;2022-08-01T09:15:48;12.87;;;4.70;;
10884;SDS011;5495;53.252;10.390;2022-08-01T09:18:33;12.33;;;4.20;;
10884;SDS011;5495;53.252;10.390;2022-08-01T09:21:24;16.30;;;4.17;;
10884;SDS011;5495;53.252;10.390;2022-08-01T09:23:53;13.37;;;4.30;;
10884;SDS011;5495;53.252;10.390;2022-08-01T09:26:28;10.90;;;4.40;;
10884;SDS011;5495;53.252;10.390;2022-08-01T09:28:58;5.33;;;3.30;;
10884;SDS011;5495;53.252;10.390;2022-08-01T09:31:39;9.17;;;3.27;;
10884;SDS011;5495;53.252;10.390;2022-08-01T09:34:14;10.30;;;4.40;;
10884;SDS011;5495;53.252;10.390;2022-08-01T09:36:55;9.70;;;3.60;;
10884;SDS011;5495;53.252;10.390;2022-08-01T09:39:31;10.87;;;3.57;;
10884;SDS011;5495;53.252;10.390;2022-08-01T09:44:51;9.90;;;3.50;;
10884;SDS011;5495;53.252;10.390;2022-08-01T09:47:38;10.30;;;3.73;;
10884;SDS011;5495;53.252;10.390;2022-08-01T09:50:10;11.03;;;3.73;;
10884;SDS011;5495;53.252;10.390;2022-08-01T09:52:40;6.67;;;3.20;;
10884;SDS011;5495;53.252;10.390;2022-08-01T09:55:08;8.63;;;3.50;;
10884;SDS011;5495;53.252;10.390;2022-08-01T09:57:36;8.17;;;3.23;;
10884;SDS011;5495;53.252;10.390;2022-08-01T10:00:16;5.13;;;2.40;;
10884;SDS011;5495;53.252;10.390;2022-08-01T10:02:47;10.93;;;2.60;;
10884;SDS011;5495;53.252;10.390;2022-08-01T10:08:08;5.80;;;2.03;;
10884;SDS011;5495;53.252;10.390;2022-08-01T10:10:39;8.50;;;2.63;;
10884;SDS011;5495;53.252;10.390;2022-08-01T10:13:12;3.67;;;1.70;;
10884;SDS011;5495;53.252;10.390;2022-08-01T10:15:42;6.37;;;2.00;;
10884;SDS011;5495;53.252;10.390;2022-08-01T10:18:23;9.07;;;2.13;;
10884;SDS011;5495;53.252;10.390;2022-08-01T10:21:08;7.73;;;2.30;;
10884;SDS011;5495;53.252;10.390;2022-08-01T10:23:47;4.93;;;1.80;;
10884;SDS011;5495;53.252;10.390;2022-08-01T10:26:18;5.03;;;2.20;;
10884;SDS011;5495;53.252;10.390;2022-08-01T10:28:48;8.40;;;2.30;;
10884;SDS011;5495;53.252;10.390;2022-08-01T10:31:19;5.10;;;2.00;;
10884;SDS011;5495;53.252;10.390;2022-08-01T10:33:49;8.50;;;2.40;;
10884;SDS011;5495;53.252;10.390;2022-08-01T10:36:22;8.87;;;2.93;;
10884;SDS011;5495;53.252;10.390;2022-08-01T10:38:53;7.43;;;2.70;;
10884;SDS011;5495;53.252;10.390;2022-08-01T10:41:26;8.03;;;2.50;;
10884;SDS011;5495;53.252;10.390;2022-08-01T10:43:56;8.00;;;2.60;;
10884;SDS011;5495;53.252;10.390;2022-08-01T10:46:24;6.40;;;2.87;;
10884;SDS011;5495;53.252;10.390;2022-08-01T10:48:54;13.67;;;3.70;;
10884;SDS011;5495;53.252;10.390;2022-08-01T10:51:29;8.73;;;3.17;;
10884;SDS011;5495;53.252;10.390;2022-08-01T10:53:56;7.20;;;3.07;;
10884;SDS011;5495;53.252;10.390;2022-08-01T10:56:26;12.77;;;3.10;;
10884;SDS011;5495;53.252;10.390;2022-08-01T10:59:06;5.73;;;2.97;;
10884;SDS011;5495;53.252;10.390;2022-08-01T11:01:34;9.20;;;2.90;;
10884;SDS011;5495;53.252;10.390;2022-08-01T11:04:02;6.33;;;2.90;;
10884;SDS011;5495;53.252;10.390;2022-08-01T11:09:39;8.20;;;3.47;;
10884;SDS011;5495;53.252;10.390;2022-08-01T11:12:10;14.20;;;3.50;;
10884;SDS011;5495;53.252;10.390;2022-08-01T11:17:50;8.13;;;3.70;;
10884;SDS011;5495;53.252;10.390;2022-08-01T11:20:18;7.27;;;2.93;;
10884;SDS011;5495;53.252;10.390;2022-08-01T11:31:42;7.33;;;2.83;;
10884;SDS011;5495;53.252;10.390;2022-08-01T11:34:09;7.80;;;2.50;;
10884;SDS011;5495;53.252;10.390;2022-08-01T11:36:38;7.07;;;2.47;;
10884;SDS011;5495;53.252;10.390;2022-08-01T11:39:13;6.23;;;2.20;;
10884;SDS011;5495;53.252;10.390;2022-08-01T11:41:47;7.63;;;2.40;;
10884;SDS011;5495;53.252;10.390;2022-08-01T11:44:20;8.60;;;2.30;;
10884;SDS011;5495;53.252;10.390;2022-08-01T11:46:59;4.93;;;2.10;;
10884;SDS011;5495;53.252;10.390;2022-08-01T11:49:31;10.70;;;2.37;;
10884;SDS011;5495;53.252;10.390;2022-08-01T11:52:02;6.63;;;2.17;;
10884;SDS011;5495;53.252;10.390;2022-08-01T11:54:32;8.60;;;2.43;;
10884;SDS011;5495;53.252;10.390;2022-08-01T11:57:03;7.03;;;2.20;;
10884;SDS011;5495;53.252;10.390;2022-08-01T11:59:36;4.97;;;1.70;;
10884;SDS011;5495;53.252;10.390;2022-08-01T12:02:14;7.30;;;1.90;;
10884;SDS011;5495;53.252;10.390;2022-08-01T12:04:50;5.53;;;1.70;;
10884;SDS011;5495;53.252;10.390;2022-08-01T12:07:37;4.83;;;1.60;;
10884;SDS011;5495;53.252;10.390;2022-08-01T12:10:06;6.63;;;2.17;;
10884;SDS011;5495;53.252;10.390;2022-08-01T12:12:55;5.50;;;1.70;;
10884;SDS011;5495;53.252;10.390;2022-08-01T12:15:29;6.73;;;1.97;;
10884;SDS011;5495;53.252;10.390;2022-08-01T12:17:58;7.60;;;2.00;;
10884;SDS011;5495;53.252;10.390;2022-08-01T12:20:27;4.60;;;1.40;;
10884;SDS011;5495;53.252;10.390;2022-08-01T12:23:05;6.13;;;2.07;;
10884;SDS011;5495;53.252;10.390;2022-08-01T12:25:34;5.50;;;1.57;;
10884;SDS011;5495;53.252;10.390;2022-08-01T12:28:08;4.47;;;1.60;;
10884;SDS011;5495;53.252;10.390;2022-08-01T12:30:36;5.17;;;1.80;;
10884;SDS011;5495;53.252;10.390;2022-08-01T12:33:09;5.97;;;1.63;;
10884;SDS011;5495;53.252;10.390;2022-08-01T12:35:45;5.90;;;1.90;;
10884;SDS011;5495;53.252;10.390;2022-08-01T12:38:14;5.30;;;1.50;;
10884;SDS011;5495;53.252;10.390;2022-08-01T12:40:45;8.73;;;1.80;;
10884;SDS011;5495;53.252;10.390;2022-08-01T12:43:17;4.50;;;1.80;;
10884;SDS011;5495;53.252;10.390;2022-08-01T12:45:49;4.03;;;1.87;;
10884;SDS011;5495;53.252;10.390;2022-08-01T12:48:22;5.70;;;1.57;;
10884;SDS011;5495;53.252;10.390;2022-08-01T12:50:51;4.43;;;1.77;;
10884;SDS011;5495;53.252;10.390;2022-08-01T12:53:21;6.73;;;1.60;;
10884;SDS011;5495;53.252;10.390;2022-08-01T12:55:49;6.57;;;1.80;;
10884;SDS011;5495;53.252;10.390;2022-08-01T12:58:20;7.63;;;2.07;;
10884;SDS011;5495;53.252;10.390;2022-08-01T13:00:49;4.77;;;1.73;;
10884;SDS011;5495;53.252;10.390;2022-08-01T13:03:29;6.97;;;1.60;;
10884;SDS011;5495;53.252;10.390;2022-08-01T13:05:57;6.73;;;2.23;;
10884;SDS011;5495;53.252;10.390;2022-08-01T13:08:29;5.37;;;1.63;;
10884;SDS011;5495;53.252;10.390;2022-08-01T13:10:59;7.90;;;1.93;;
10884;SDS011;5495;53.252;10.390;2022-08-01T13:13:40;6.87;;;1.73;;
10884;SDS011;5495;53.252;10.390;2022-08-01T13:16:09;4.70;;;1.50;;
10884;SDS011;5495;53.252;10.390;2022-08-01T13:18:37;6.20;;;1.57;;
10884;SDS011;5495;53.252;10.390;2022-08-01T13:21:12;8.90;;;1.80;;
10884;SDS011;5495;53.252;10.390;2022-08-01T13:23:40;5.87;;;1.97;;
10884;SDS011;5495;53.252;10.390;2022-08-01T13:26:09;6.67;;;1.77;;
10884;SDS011;5495;53.252;10.390;2022-08-01T13:28:38;5.07;;;1.70;;
10884;SDS011;5495;53.252;10.390;2022-08-01T13:31:09;6.27;;;1.57;;
10884;SDS011;5495;53.252;10.390;2022-08-01T13:33:42;5.80;;;2.13;;
10884;SDS011;5495;53.252;10.390;2022-08-01T13:36:10;8.10;;;1.60;;
10884;SDS011;5495;53.252;10.390;2022-08-01T13:38:38;6.17;;;1.70;;
10884;SDS011;5495;53.252;10.390;2022-08-01T13:41:24;4.63;;;1.70;;
10884;SDS011;5495;53.252;10.390;2022-08-01T13:44:16;8.37;;;1.87;;
10884;SDS011;5495;53.252;10.390;2022-08-01T13:46:48;3.63;;;1.73;;
10884;SDS011;5495;53.252;10.390;2022-08-01T13:49:18;5.60;;;1.57;;
10884;SDS011;5495;53.252;10.390;2022-08-01T13:51:59;5.90;;;1.60;;
10884;SDS011;5495;53.252;10.390;2022-08-01T13:54:28;6.57;;;1.57;;
10884;SDS011;5495;53.252;10.390;2022-08-01T13:56:57;6.13;;;1.60;;
10884;SDS011;5495;53.252;10.390;2022-08-01T13:59:32;4.50;;;1.43;;
10884;SDS011;5495;53.252;10.390;2022-08-01T14:02:04;3.43;;;1.20;;
10884;SDS011;5495;53.252;10.390;2022-08-01T14:04:48;6.87;;;1.80;;
10884;SDS011;5495;53.252;10.390;2022-08-01T14:07:22;5.80;;;1.73;;
10884;SDS011;5495;53.252;10.390;2022-08-01T14:09:50;6.53;;;1.53;;
10884;SDS011;5495;53.252;10.390;2022-08-01T14:12:19;4.77;;;1.60;;
10884;SDS011;5495;53.252;10.390;2022-08-01T14:18:01;5.40;;;1.60;;
10884;SDS011;5495;53.252;10.390;2022-08-01T14:20:31;6.13;;;1.60;;
10884;SDS011;5495;53.252;10.390;2022-08-01T14:22:59;5.40;;;1.80;;
10884;SDS011;5495;53.252;10.390;2022-08-01T14:25:27;7.63;;;1.70;;
10884;SDS011;5495;53.252;10.390;2022-08-01T14:27:54;6.13;;;1.63;;
10884;SDS011;5495;53.252;10.390;2022-08-01T14:30:22;6.73;;;1.70;;
10884;SDS011;5495;53.252;10.390;2022-08-01T14:32:49;6.47;;;1.93;;
10884;SDS011;5495;53.252;10.390;2022-08-01T14:35:18;5.53;;;1.47;;
10884;SDS011;5495;53.252;10.390;2022-08-01T14:37:49;5.10;;;1.50;;
10884;SDS011;5495;53.252;10.390;2022-08-01T14:40:24;6.10;;;1.73;;
10884;SDS011;5495;53.252;10.390;2022-08-01T14:42:55;6.60;;;1.63;;
10884;SDS011;5495;53.252;10.390;2022-08-01T14:45:26;4.90;;;1.63;;
10884;SDS011;5495;53.252;10.390;2022-08-01T14:47:54;5.83;;;1.80;;
10884;SDS011;5495;53.252;10.390;2022-08-01T14:50:31;5.13;;;1.77;;
10884;SDS011;5495;53.252;10.390;2022-08-01T14:52:59;6.17;;;1.50;;
10884;SDS011;5495;53.252;10.390;2022-08-01T14:55:27;4.20;;;1.70;;
10884;SDS011;5495;53.252;10.390;2022-08-01T14:57:57;5.10;;;1.60;;
10884;SDS011;5495;53.252;10.390;2022-08-01T15:00:25;9.40;;;1.80;;
10884;SDS011;5495;53.252;10.390;2022-08-01T15:02:52;5.43;;;1.40;;
10884;SDS011;5495;53.252;10.390;2022-08-01T15:05:20;4.20;;;1.63;;
10884;SDS011;5495;53.252;10.390;2022-08-01T15:07:52;4.53;;;1.70;;
10884;SDS011;5495;53.252;10.390;2022-08-01T15:10:22;8.10;;;1.50;;
10884;SDS011;5495;53.252;10.390;2022-08-01T15:12:49;3.93;;;1.50;;
10884;SDS011;5495;53.252;10.390;2022-08-01T15:15:17;4.17;;;1.47;;
10884;SDS011;5495;53.252;10.390;2022-08-01T15:17:45;5.23;;;1.50;;
10884;SDS011;5495;53.252;10.390;2022-08-01T15:20:13;5.83;;;1.80;;
10884;SDS011;5495;53.252;10.390;2022-08-01T15:22:40;4.60;;;1.53;;
10884;SDS011;5495;53.252;10.390;2022-08-01T15:25:09;3.70;;;1.60;;
10884;SDS011;5495;53.252;10.390;2022-08-01T15:27:37;7.30;;;2.10;;
10884;SDS011;5495;53.252;10.390;2022-08-01T15:30:04;8.27;;;1.47;;
10884;SDS011;5495;53.252;10.390;2022-08-01T15:32:33;6.07;;;1.40;;
10884;SDS011;5495;53.252;10.390;2022-08-01T15:35:00;5.60;;;1.70;;
10884;SDS011;5495;53.252;10.390;2022-08-01T15:37:28;7.53;;;1.80;;
10884;SDS011;5495;53.252;10.390;2022-08-01T15:39:56;7.93;;;1.80;;
10884;SDS011;5495;53.252;10.390;2022-08-01T15:42:27;6.60;;;1.60;;
10884;SDS011;5495;53.252;10.390;2022-08-01T15:44:56;7.93;;;1.60;;
10884;SDS011;5495;53.252;10.390;2022-08-01T15:47:24;8.03;;;2.10;;
10884;SDS011;5495;53.252;10.390;2022-08-01T15:49:51;6.87;;;1.80;;
10884;SDS011;5495;53.252;10.390;2022-08-01T15:52:20;4.30;;;1.33;;
10884;SDS011;5495;53.252;10.390;2022-08-01T15:54:48;9.23;;;1.90;;
10884;SDS011;5495;53.252;10.390;2022-08-01T15:57:16;6.17;;;1.87;;
10884;SDS011;5495;53.252;10.390;2022-08-01T15:59:45;4.60;;;1.63;;
10884;SDS011;5495;53.252;10.390;2022-08-01T16:02:13;5.47;;;1.70;;
10884;SDS011;5495;53.252;10.390;2022-08-01T16:04:40;5.83;;;1.70;;
10884;SDS011;5495;53.252;10.390;2022-08-01T16:07:08;5.23;;;1.87;;
10884;SDS011;5495;53.252;10.390;2022-08-01T16:09:36;4.87;;;1.70;;
10884;SDS011;5495;53.252;10.390;2022-08-01T16:12:04;7.57;;;1.57;;
10884;SDS011;5495;53.252;10.390;2022-08-01T16:14:32;6.60;;;1.57;;
10884;SDS011;5495;53.252;10.390;2022-08-01T16:17:01;6.33;;;1.50;;
10884;SDS011;5495;53.252;10.390;2022-08-01T16:19:28;7.03;;;2.07;;
10884;SDS011;5495;53.252;10.390;2022-08-01T16:21:58;8.37;;;1.87;;
10884;SDS011;5495;53.252;10.390;2022-08-01T16:24:26;6.30;;;2.03;;
10884;SDS011;5495;53.252;10.390;2022-08-01T16:26:55;6.13;;;1.73;;
10884;SDS011;5495;53.252;10.390;2022-08-01T16:29:22;4.20;;;1.23;;
10884;SDS011;5495;53.252;10.390;2022-08-01T16:31:54;8.97;;;1.50;;
10884;SDS011;5495;53.252;10.390;2022-08-01T16:34:23;6.60;;;1.60;;
10884;SDS011;5495;53.252;10.390;2022-08-01T16:36:51;6.63;;;1.90;;
10884;SDS011;5495;53.252;10.390;2022-08-01T16:39:20;6.07;;;1.50;;
10884;SDS011;5495;53.252;10.390;2022-08-01T16:41:47;7.33;;;1.63;;
10884;SDS011;5495;53.252;10.390;2022-08-01T16:44:15;5.77;;;2.00;;
10884;SDS011;5495;53.252;10.390;2022-08-01T16:46:49;9.43;;;1.70;;
10884;SDS011;5495;53.252;10.390;2022-08-01T16:49:17;6.90;;;1.70;;
10884;SDS011;5495;53.252;10.390;2022-08-01T16:51:47;6.27;;;1.63;;
10884;SDS011;5495;53.252;10.390;2022-08-01T16:54:17;5.87;;;1.80;;
10884;SDS011;5495;53.252;10.390;2022-08-01T16:56:45;5.77;;;1.50;;
10884;SDS011;5495;53.252;10.390;2022-08-01T16:59:12;7.03;;;1.70;;
10884;SDS011;5495;53.252;10.390;2022-08-01T17:01:41;5.70;;;1.80;;
10884;SDS011;5495;53.252;10.390;2022-08-01T17:04:09;5.20;;;1.47;;
10884;SDS011;5495;53.252;10.390;2022-08-01T17:06:37;5.47;;;1.67;;
10884;SDS011;5495;53.252;10.390;2022-08-01T17:09:11;6.23;;;1.80;;
10884;SDS011;5495;53.252;10.390;2022-08-01T17:11:43;5.30;;;1.87;;
10884;SDS011;5495;53.252;10.390;2022-08-01T17:14:13;7.90;;;1.80;;
10884;SDS011;5495;53.252;10.390;2022-08-01T17:16:42;3.90;;;1.57;;
10884;SDS011;5495;53.252;10.390;2022-08-01T17:19:10;7.27;;;1.53;;
10884;SDS011;5495;53.252;10.390;2022-08-01T17:21:38;4.90;;;1.60;;